»·PEaware :: VTE250 MMLM-KAZC

VTE250 :: MMLM-KAZC

FLIGHT INFORMATION

Flight Status: Arrived
Operator: Unknown
More flights by this operator :: More flights under this callsign
Pilot: Andrew J. (13363)
Aircraft: BOMBARDIER BD-100 CHALLENGER 300
(CL30)
More flights by this aircraft type
Origin: MMLM Valle Del Fuerte Internationa
Mexico
Destination: KAZC Colorado City Mun
United States
More flights between these airports :: More routes between these airports
Route: CEN UJ3 MIURA PXR CORKR
File this flight plan on PilotEdge
Remarks:
Altitude:
(Current/Filed)
40,000ft
Speed:
(Current/Filed)
470kts
Departed: 07-Aug-18 10:49 PM
Arrived: 08-Aug-18 12:00 AM
Distance/Time
Traveled:
706nm/1:11
Distance/Time
To Go:
Arrived

Flight Plot

Page will automatically refresh every two minutes.

Flight plan parsing failed; only flown route is shown


Map Options




Map Legend


Flown Route
Filed Route
Departure Airport
Arrival Airport
Navaid (VOR, NDB)
Fix

Horizontal Profiles

Position Reports

Time Latitude Longitude Heading Altitude Ground
Speed
07-Aug-18 22:49 25.905572 -109.175108 339 13009ft 360kts
07-Aug-18 22:50 25.999293 -109.217467 339 16677ft 374kts
07-Aug-18 22:51 26.096237 -109.260343 339 20006ft 381kts
07-Aug-18 22:52 26.195169 -109.303891 339 22584ft 395kts
07-Aug-18 22:53 26.297915 -109.349129 339 25080ft 401kts
07-Aug-18 22:54 26.401668 -109.394878 338 27301ft 407kts
07-Aug-18 22:55 26.506468 -109.441175 338 29496ft 405kts
07-Aug-18 22:56 26.610344 -109.487152 338 31488ft 403kts
07-Aug-18 22:57 26.714495 -109.533343 338 33091ft 407kts
07-Aug-18 22:58 26.820100 -109.580272 338 34351ft 417kts
07-Aug-18 22:59 26.929420 -109.628937 338 35379ft 429kts
07-Aug-18 23:00 27.040691 -109.678556 336 36396ft 439kts
07-Aug-18 23:01 27.153665 -109.729095 337 37391ft 446kts
07-Aug-18 23:02 27.268850 -109.780730 337 38439ft 449kts
07-Aug-18 23:03 27.384134 -109.833144 332 39588ft 446kts
07-Aug-18 23:04 27.490703 -109.905091 326 40024ft 458kts
07-Aug-18 23:05 27.600075 -109.981568 326 40041ft 469kts
07-Aug-18 23:06 27.711432 -110.059954 326 40031ft 475kts
07-Aug-18 23:07 27.823407 -110.139033 326 40032ft 478kts
07-Aug-18 23:08 27.935880 -110.218712 326 40036ft 480kts
07-Aug-18 23:09 28.049054 -110.299089 326 40040ft 482kts
07-Aug-18 23:10 28.142798 -110.365798 326 40037ft 483kts
07-Aug-18 23:11 28.256314 -110.446801 326 40034ft 484kts
07-Aug-18 23:12 28.389186 -110.541855 326 40035ft 484kts
07-Aug-18 23:13 28.483679 -110.609634 325 40037ft 485kts
07-Aug-18 23:14 28.616343 -110.705032 325 40042ft 486kts
07-Aug-18 23:15 28.719455 -110.754616 345 40034ft 489kts
07-Aug-18 23:16 29.054843 -110.839827 348 40040ft 488kts
07-Aug-18 23:17 29.388651 -110.922336 348 40033ft 480kts
07-Aug-18 23:18 29.718026 -111.004324 349 40035ft 473kts
07-Aug-18 23:19 30.038681 -111.084676 349 40036ft 467kts
07-Aug-18 23:20 30.325607 -111.157029 349 40133ft 460kts
07-Aug-18 23:21 30.594871 -111.225326 349 40265ft 455kts
07-Aug-18 23:22 30.870365 -111.295607 349 40264ft 454kts
07-Aug-18 23:23 31.133690 -111.363141 346 40263ft 454kts
07-Aug-18 23:24 31.413077 -111.435272 346 40264ft 455kts
07-Aug-18 23:25 31.701337 -111.510130 346 40190ft 457kts
07-Aug-18 23:26 32.013224 -111.591670 346 40034ft 461kts
07-Aug-18 23:27 32.238631 -111.650940 345 40033ft 460kts
07-Aug-18 23:28 32.528096 -111.727513 345 40043ft 461kts
07-Aug-18 23:29 32.779625 -111.794456 345 40046ft 461kts
07-Aug-18 23:30 33.016868 -111.857951 345 40044ft 461kts
07-Aug-18 23:31 33.206558 -111.908981 345 39999ft 461kts
07-Aug-18 23:32 33.418635 -111.966301 345 39942ft 462kts
07-Aug-18 23:33 33.646812 -112.003889 350 39984ft 459kts
07-Aug-18 23:34 33.884775 -112.041571 350 39982ft 457kts
07-Aug-18 23:35 34.127815 -112.080280 350 40019ft 455kts
07-Aug-18 23:36 34.373117 -112.119583 350 40182ft 451kts
07-Aug-18 23:37 34.631012 -112.161151 350 40182ft 451kts
07-Aug-18 23:38 34.808059 -112.189841 350 40182ft 452kts
07-Aug-18 23:39 34.934226 -112.210357 350 39136ft 471kts
07-Aug-18 23:40 35.066451 -112.231924 350 37655ft 487kts
07-Aug-18 23:41 35.200420 -112.253865 350 36178ft 495kts
07-Aug-18 23:42 35.336878 -112.276278 350 34678ft 498kts
07-Aug-18 23:43 35.471283 -112.298421 350 33161ft 480kts
07-Aug-18 23:44 35.601081 -112.319886 350 31642ft 465kts
07-Aug-18 23:45 35.727343 -112.340834 350 30122ft 451kts
07-Aug-18 23:46 35.849323 -112.361135 350 28610ft 439kts
07-Aug-18 23:47 35.968793 -112.381082 350 26920ft 432kts
07-Aug-18 23:48 36.084807 -112.407530 333 25098ft 420kts
07-Aug-18 23:49 36.185641 -112.472285 330 23322ft 411kts
07-Aug-18 23:50 36.284593 -112.539825 329 21359ft 405kts
07-Aug-18 23:51 36.381753 -112.607216 329 19345ft 395kts
07-Aug-18 23:52 36.475260 -112.672459 329 17316ft 385kts
07-Aug-18 23:53 36.566931 -112.736641 329 15045ft 367kts
07-Aug-18 23:54 36.646847 -112.805199 320 12539ft 338kts
07-Aug-18 23:55 36.717793 -112.874880 321 10032ft 315kts
07-Aug-18 23:56 36.783831 -112.940304 321 7524ft 294kts
07-Aug-18 23:57 36.841973 -112.998384 321 6286ft 238kts
07-Aug-18 23:58 36.889619 -113.039799 341 5764ft 183kts
07-Aug-18 23:59 36.930781 -113.031523 23 5217ft 139kts
08-Aug-18 00:00 36.963194 -113.010545 32 4881ft 76kts
08-Aug-18 00:01 36.964390 -113.008788 207 4880ft 6kts
08-Aug-18 00:02 36.962170 -113.010255 207 4880ft 6kts
08-Aug-18 00:03 36.960768 -113.011158 191 4880ft 8kts
08-Aug-18 00:04 36.960194 -113.010543 207 4881ft 0kts
08-Aug-18 00:05 36.960194 -113.010543 207 4881ft 0kts

Navigation Log

Ident Type
Flight plan parsing failed, navigation log unavailable